createdAt,value
2019-03-15T00:02:04.321Z,76.87
2019-03-15T00:06:58.168Z,76.90
2019-03-15T00:11:52.029Z,76.25
2019-03-15T00:16:45.911Z,75.78
2019-03-15T00:21:39.797Z,75.94
2019-03-15T00:26:33.646Z,75.61
2019-03-15T00:31:27.587Z,75.36
2019-03-15T00:36:21.432Z,75.16
2019-03-15T00:41:15.293Z,75.04
2019-03-15T00:46:09.149Z,75.05
2019-03-15T00:51:03.101Z,75.06
2019-03-15T00:55:56.973Z,74.62
2019-03-15T01:00:50.795Z,74.54
2019-03-15T01:05:44.649Z,74.68
2019-03-15T01:10:38.514Z,75.47
2019-03-15T01:15:32.353Z,75.55
2019-03-15T01:20:26.237Z,76.12
2019-03-15T01:25:20.103Z,75.75
2019-03-15T01:30:13.948Z,76.17
2019-03-15T01:35:07.878Z,76.11
2019-03-15T01:40:02.342Z,76.06
2019-03-15T01:44:56.341Z,75.88
2019-03-15T01:49:50.184Z,75.83
2019-03-15T01:54:44.052Z,75.64
2019-03-15T01:59:37.941Z,76.11
2019-03-15T02:04:32.119Z,76.43
2019-03-15T02:09:26.063Z,77.02
2019-03-15T02:14:19.929Z,77.50
2019-03-15T02:19:13.802Z,77.02
2019-03-15T02:24:07.643Z,77.05
2019-03-15T02:29:01.488Z,76.81
2019-03-15T02:33:55.360Z,76.68
2019-03-15T02:38:49.183Z,76.68
2019-03-15T02:43:43.062Z,76.90
2019-03-15T02:48:36.932Z,76.24
2019-03-15T02:53:30.789Z,76.67
2019-03-15T02:58:24.630Z,75.88
2019-03-15T03:03:18.486Z,76.02
2019-03-15T03:08:13.433Z,75.63
2019-03-15T03:13:08.038Z,75.83
2019-03-15T03:18:01.860Z,75.76
2019-03-15T03:22:55.737Z,75.85
2019-03-15T03:27:49.589Z,75.70
2019-03-15T03:32:44.571Z,75.61
2019-03-15T03:37:38.999Z,75.74
2019-03-15T03:42:32.860Z,75.56
2019-03-15T03:47:26.816Z,75.53
2019-03-15T03:52:20.759Z,75.77
2019-03-15T03:57:14.603Z,75.32
2019-03-15T04:02:08.530Z,75.39
2019-03-15T04:07:02.480Z,75.55
2019-03-15T04:11:56.483Z,75.73
2019-03-15T04:16:50.485Z,75.78
2019-03-15T04:21:44.386Z,76.15
2019-03-15T04:26:38.333Z,76.46
2019-03-15T04:31:32.190Z,76.40
2019-03-15T04:36:26.056Z,76.70
2019-03-15T04:41:19.898Z,76.59
2019-03-15T04:46:13.745Z,76.70
2019-03-15T04:51:07.597Z,76.44
2019-03-15T04:56:01.578Z,76.01
2019-03-15T05:00:55.454Z,75.98
2019-03-15T05:06:01.928Z,77.28
2019-03-15T05:10:45.058Z,77.98
2019-03-15T05:15:38.912Z,79.28
2019-03-15T05:20:32.793Z,80.47
2019-03-15T05:25:29.660Z,81.14
2019-03-15T05:30:22.452Z,81.39
2019-03-15T05:35:16.434Z,81.49
2019-03-15T05:40:10.362Z,82.04
2019-03-15T05:45:07.725Z,82.28
2019-03-15T05:50:03.287Z,82.48
2019-03-15T05:54:57.169Z,82.78
2019-03-15T05:59:51.014Z,83.20
2019-03-15T06:04:44.880Z,83.62
2019-03-15T06:09:38.724Z,83.75
2019-03-15T06:14:32.581Z,83.90
2019-03-15T06:19:26.462Z,84.06
2019-03-15T06:24:20.375Z,84.39
2019-03-15T06:29:14.272Z,84.60
2019-03-15T06:34:08.116Z,84.83
2019-03-15T06:39:02.821Z,84.95
2019-03-15T06:43:56.652Z,85.12
2019-03-15T06:48:50.469Z,85.57
2019-03-15T06:53:47.690Z,86.12
2019-03-15T06:58:40.107Z,86.73
2019-03-15T07:03:33.942Z,87.40
2019-03-15T07:08:27.810Z,87.90
2019-03-15T07:13:21.658Z,88.33
2019-03-15T07:18:18.475Z,89.31
2019-03-15T07:23:11.417Z,89.82
2019-03-15T07:28:05.292Z,90.29
2019-03-15T07:32:59.154Z,90.39
2019-03-15T07:37:53.019Z,90.67
2019-03-15T07:42:46.974Z,91.25
2019-03-15T07:47:40.832Z,91.24
2019-03-15T07:52:34.674Z,91.50
2019-03-15T07:57:28.554Z,92.00
2019-03-15T08:02:22.405Z,91.73
2019-03-15T08:07:20.041Z,91.35
2019-03-15T08:12:12.033Z,91.45
2019-03-15T08:17:05.876Z,92.05
2019-03-15T08:21:59.751Z,91.78
2019-03-15T08:26:53.598Z,91.86
2019-03-15T08:31:47.503Z,91.73
2019-03-15T08:36:41.348Z,91.24
2019-03-15T08:41:35.207Z,91.19
2019-03-15T08:46:29.064Z,91.34
2019-03-15T08:51:23.012Z,91.90
2019-03-15T08:56:16.974Z,92.24
2019-03-15T09:01:11.192Z,92.54
2019-03-15T09:06:05.185Z,92.74
2019-03-15T09:10:59.062Z,92.55
2019-03-15T09:15:52.910Z,92.78
2019-03-15T09:20:48.824Z,92.46
2019-03-15T09:25:42.525Z,91.98
2019-03-15T09:30:36.378Z,92.32
2019-03-15T09:35:30.356Z,92.63
2019-03-15T09:40:25.896Z,92.83
2019-03-15T09:45:20.178Z,93.56
2019-03-15T09:50:23.143Z,94.36
2019-03-15T09:55:12.082Z,94.99
2019-03-15T10:00:17.094Z,94.86
2019-03-15T10:05:11.805Z,94.36
2019-03-15T10:10:13.868Z,94.02
2019-03-15T10:15:12.418Z,93.77
2019-03-15T10:20:07.915Z,93.85
2019-03-15T10:25:03.783Z,94.13
2019-03-15T10:29:57.732Z,93.45
2019-03-15T10:34:51.612Z,93.54
2019-03-15T10:39:45.462Z,93.62
2019-03-15T10:44:39.325Z,93.48
2019-03-15T10:49:33.173Z,93.35
2019-03-15T10:54:27.004Z,93.26
2019-03-15T10:59:20.868Z,93.60
2019-03-15T11:04:14.875Z,93.95
2019-03-15T11:09:08.847Z,93.95
2019-03-15T11:14:03.019Z,94.29
2019-03-15T11:18:56.867Z,94.42
2019-03-15T11:23:50.783Z,93.70
2019-03-15T11:28:44.658Z,91.51
2019-03-15T11:33:38.524Z,91.13
2019-03-15T11:38:32.386Z,90.67
2019-03-15T11:43:26.369Z,90.40
2019-03-15T11:48:20.243Z,90.34
2019-03-15T11:53:14.100Z,88.15
2019-03-15T11:58:07.971Z,85.70
2019-03-15T12:03:01.875Z,86.56
2019-03-15T12:07:55.824Z,86.89
2019-03-15T12:12:49.719Z,86.07
2019-03-15T12:17:43.652Z,85.63
2019-03-15T12:22:37.562Z,85.90
2019-03-15T12:27:31.540Z,85.47
2019-03-15T12:32:25.489Z,81.95
2019-03-15T12:37:19.547Z,77.49
2019-03-15T12:42:13.405Z,79.08
2019-03-15T12:47:07.381Z,80.93
2019-03-15T12:52:01.460Z,82.07
2019-03-15T12:56:55.306Z,77.06
2019-03-15T13:01:49.274Z,76.77
2019-03-15T13:06:43.158Z,78.63
2019-03-15T13:11:37.068Z,80.27
2019-03-15T13:16:30.937Z,81.28
2019-03-15T13:21:24.840Z,79.50
2019-03-15T13:26:18.730Z,77.47
2019-03-15T13:31:12.582Z,77.31
2019-03-15T13:36:06.971Z,77.85
2019-03-15T13:41:00.846Z,79.25
2019-03-15T13:45:55.122Z,80.17
2019-03-15T13:50:49.040Z,81.32
2019-03-15T13:55:42.921Z,81.91
2019-03-15T14:00:36.801Z,82.08
2019-03-15T14:05:30.664Z,81.79
2019-03-15T14:10:24.613Z,81.62
2019-03-15T14:15:19.085Z,80.65
2019-03-15T14:20:13.206Z,79.66
2019-03-15T14:25:21.474Z,79.88
2019-03-15T14:30:15.462Z,80.22
2019-03-15T14:35:09.538Z,80.68
2019-03-15T14:40:06.150Z,80.76
2019-03-15T14:45:00.102Z,80.71
2019-03-15T14:49:54.122Z,80.04
2019-03-15T14:54:48.088Z,79.90
2019-03-15T14:59:41.952Z,79.34
2019-03-15T15:04:35.946Z,79.53
2019-03-15T15:09:29.928Z,79.48
2019-03-15T15:14:23.826Z,80.31
2019-03-15T15:19:17.839Z,80.62
2019-03-15T15:24:11.936Z,80.69
2019-03-15T15:29:05.858Z,81.05
2019-03-15T15:33:59.744Z,80.91
2019-03-15T15:38:53.839Z,80.69
2019-03-15T15:43:47.732Z,81.29
2019-03-15T15:48:41.622Z,85.09
2019-03-15T15:53:35.602Z,87.95
2019-03-15T15:58:29.485Z,89.15
2019-03-15T16:03:23.448Z,90.71
2019-03-15T16:08:17.334Z,91.47
2019-03-15T16:13:17.391Z,92.28
2019-03-15T16:18:07.206Z,92.74
2019-03-15T16:23:01.080Z,93.11
2019-03-15T16:27:54.950Z,93.14
2019-03-15T16:32:48.952Z,92.97
2019-03-15T16:37:42.963Z,93.51
2019-03-15T16:42:37.048Z,93.99
2019-03-15T16:47:30.912Z,94.96
2019-03-15T16:52:25.005Z,95.70
2019-03-15T16:57:18.873Z,95.85
2019-03-15T17:02:12.755Z,95.85
2019-03-15T17:07:06.626Z,95.96
2019-03-15T17:12:00.483Z,95.34
2019-03-15T17:16:54.448Z,94.81
2019-03-15T17:21:48.453Z,95.68
2019-03-15T17:26:42.479Z,97.53
2019-03-15T17:31:36.414Z,98.34
2019-03-15T17:36:30.544Z,98.48
2019-03-15T17:41:24.504Z,98.69
2019-03-15T17:46:18.405Z,99.14
2019-03-15T17:51:12.261Z,99.46
2019-03-15T17:56:06.301Z,99.69
2019-03-15T18:01:00.178Z,99.91
2019-03-15T18:05:54.191Z,100.00
2019-03-15T18:10:48.188Z,100.00
2019-03-15T18:15:42.083Z,100.00
2019-03-15T18:20:36.503Z,100.00
2019-03-15T18:25:30.508Z,100.00
2019-03-15T18:30:24.627Z,100.00
2019-03-15T18:35:32.561Z,100.00
2019-03-15T18:40:15.701Z,100.00
2019-03-15T18:45:13.489Z,100.00
2019-03-15T18:50:16.462Z,100.00
2019-03-15T18:55:10.541Z,100.00
2019-03-15T19:00:08.226Z,100.00
2019-03-15T19:05:04.182Z,100.00
2019-03-15T19:09:58.296Z,100.00
2019-03-15T19:14:52.123Z,100.00
2019-03-15T19:19:46.117Z,100.00
2019-03-15T19:24:40.111Z,99.04
2019-03-15T19:29:34.095Z,97.33
2019-03-15T19:34:27.988Z,97.14
2019-03-15T19:39:21.863Z,97.05
2019-03-15T19:44:15.841Z,96.97
2019-03-15T19:49:09.710Z,95.60
2019-03-15T19:54:03.599Z,95.72
2019-03-15T19:58:57.485Z,96.38
2019-03-15T20:03:51.358Z,95.65
2019-03-15T20:08:45.250Z,94.80
2019-03-15T20:13:39.238Z,94.55
2019-03-15T20:18:33.133Z,93.72
2019-03-15T20:23:27.057Z,92.84
2019-03-15T20:28:21.023Z,92.55
2019-03-15T20:33:15.049Z,92.56
2019-03-15T20:38:08.903Z,92.66
2019-03-15T20:43:02.845Z,91.58
2019-03-15T20:47:56.702Z,90.91
2019-03-15T20:52:50.908Z,91.60
2019-03-15T20:57:44.886Z,91.74
2019-03-15T21:02:39.033Z,90.04
2019-03-15T21:07:32.933Z,90.04
2019-03-15T21:12:26.908Z,90.27
2019-03-15T21:17:20.791Z,91.32
2019-03-15T21:22:14.813Z,89.55
2019-03-15T21:27:08.687Z,89.74
2019-03-15T21:32:03.070Z,90.56
2019-03-15T21:36:57.186Z,89.75
2019-03-15T21:41:51.263Z,89.90
2019-03-15T21:46:45.270Z,89.74
2019-03-15T21:51:39.135Z,89.51
2019-03-15T21:56:33.129Z,91.27
2019-03-15T22:01:27.049Z,90.03
2019-03-15T22:06:21.048Z,90.90
2019-03-15T22:11:21.262Z,91.89
2019-03-15T22:16:10.690Z,91.66
2019-03-15T22:21:04.617Z,90.88
2019-03-15T22:25:58.615Z,90.98
2019-03-15T22:30:52.501Z,90.78
2019-03-15T22:35:46.471Z,90.39
2019-03-15T22:40:40.551Z,90.00
2019-03-15T22:45:34.421Z,90.61
2019-03-15T22:50:28.286Z,90.78
2019-03-15T22:55:22.239Z,90.72
2019-03-15T23:00:17.202Z,90.67
2019-03-15T23:05:11.582Z,90.78
2019-03-15T23:10:07.833Z,90.46
2019-03-15T23:15:02.436Z,90.29
2019-03-15T23:19:56.261Z,90.94
2019-03-15T23:24:50.181Z,91.11
2019-03-15T23:29:44.047Z,91.88
2019-03-15T23:34:37.914Z,92.12
2019-03-15T23:39:31.793Z,91.90
2019-03-15T23:44:25.661Z,92.45
2019-03-15T23:49:19.557Z,92.68
2019-03-15T23:54:13.424Z,92.49
2019-03-15T23:59:07.287Z,92.09
